Nearby METAR Reports

 

KBED - Bedford, Massachusetts, USA
Distance from station: ENE 12mi, 20km
Updated: Sat, 25-Jan-2020 5:51pm EST
Light rain, Mist, Overcast
Light rain, Mist, Overcast
 Wind from E
Wind: E 20 mph , 31 km/h, Gust: 25 mph , 41 km/h
Temperature: 45°F , 7°C
Wind Chill: 37°F , 3°C
Dew Point: 39°F , 4°C
Humidity: 81%
Barometer: 29.94 inHg , 1013.9 hPa
Summary: Light rain, Mist
Clouds: Overcast
Visibility: 2 1/2 miles , 4 km
Cloud details: Overcast 600 ft
2020/01/25 22:51 KBED 252251Z 08017G22KT 2 1/2SM -RA BR OVC006 07/04 A2994 RMK AO2 RAE08B28 SLP155 P0001 T00670044 $
KFIT - Fitchburg, Massachusetts, USA
Distance from station: NW 15mi, 24km
Updated: Sat, 25-Jan-2020 6:05pm EST
Light rain, Mist, Overcast
Light rain, Mist, Overcast
 Wind from ENE
Wind: ENE 9 mph , 15 km/h
Temperature: 39°F , 4°C
Wind Chill: 33°F , 1°C
Dew Point: 37°F , 3°C
Humidity: 93%
Barometer: 29.91 inHg , 1012.9 hPa
Summary: Light rain, Mist
Clouds: Overcast
Visibility: 3 miles , 5 km
Cloud details: Overcast 500 ft
2020/01/25 23:05 KFIT 252305Z AUTO 07008KT 3SM -RA BR OVC005 04/03 A2991 RMK AO2 PRESFR P0001 T00440033
 
KORH - Worcester, Massachusetts, USA
Distance from station: WSW 20mi, 32km
Updated: Sat, 25-Jan-2020 6:16pm EST
Light rain, Fog, Overcast
Light rain, Fog, Overcast
 Wind from ENE
Wind: ENE 14 mph , 22 km/h, Gust: 21 mph , 33 km/h
Temperature: 39°F , 4°C
Wind Chill: 31°F , -1°C
Dew Point: 39°F , 4°C
Humidity: 100%
Barometer: 29.85 inHg , 1010.8 hPa
Summary: Light rain, Fog
Clouds: Overcast
Visibility: 1/4 mile , 0.4 km
Cloud details: Overcast 200 ft
2020/01/25 23:16 KORH 252316Z 06012G18KT 1/4SM R11/5000VP6000FT -RA FG VV002 04/04 A2985 RMK AO2 P0003 T00440039
KOWD - Norwood, Massachusetts, USA
Distance from station: SE 24mi, 39km
Updated: Sat, 25-Jan-2020 5:53pm EST
Light rain, Overcast
Light rain, Overcast
 Wind from E
Wind: E 12 mph , 19 km/h, Gust: 20 mph , 31 km/h
Temperature: 48°F , 9°C
Wind Chill: 43°F , 6°C
Dew Point: 43°F , 6°C
Humidity: 82%
Barometer: 29.93 inHg , 1013.5 hPa
Summary: Light rain
Clouds: Overcast
Visibility: 5 miles , 8 km
Cloud details: Overcast 700 ft
2020/01/25 22:53 KOWD 252253Z 09010G17KT 5SM -RA OVC007 09/06 A2993 RMK AO2 RAB18 SLP136 P0001 T00890056
 
KMQE - East Milton, Massachusetts, USA
Distance from station: ESE 25mi, 40km
Updated: Sat, 25-Jan-2020 5:51pm EST

 Wind from ESE
Wind: ESE 24 mph , 39 km/h, Gust: 35 mph , 56 km/h
Temperature: 43°F , 6°C
Wind Chill: 34°F , 1°C
Dew Point: 43°F , 6°C
Humidity: 100%
Barometer: 29.90 inHg , 1012.5 hPa
2020/01/25 22:51 KMQE 252251Z AUTO 11021G30KT 06/06 A2990 RMK AO1 PK WND 09031/2221 SLP140 P0001 T00560056
KASH - Nashua/Boire Fld, New Hampshire, USA
Distance from station: N 26mi, 42km
Updated: Sat, 25-Jan-2020 5:56pm EST
Light rain, Overcast
Light rain, Overcast
 Wind from E
Wind: E 8 mph , 13 km/h, Gust: 21 mph , 33 km/h
Temperature: 39°F , 4°C
Wind Chill: 33°F , 1°C
Dew Point: 39°F , 4°C
Humidity: 100%
Barometer: 29.98 inHg , 1015.2 hPa
Summary: Light rain
Clouds: Overcast
Visibility: 10 miles , 16 km
Cloud details: Overcast 700 ft
2020/01/25 22:56 KASH 252256Z 10007G18KT 10SM -RA OVC007 04/04 A2998 RMK AO2 SLP158 P0000 T00440044
 
KBOS - Boston, Massachusetts, USA
Distance from station: E 26mi, 42km
Updated: Sat, 25-Jan-2020 6:12pm EST
Rain, Mist, Overcast
Rain, Mist, Overcast
 Wind from E
Wind: E 18 mph , 30 km/h
Temperature: 45°F , 7°C
Wind Chill: 37°F , 3°C
Dew Point: 41°F , 5°C
Humidity: 87%
Barometer: 29.95 inHg , 1014.2 hPa
Summary: Rain, Mist
Clouds: Overcast
Visibility: 2 1/2 miles , 4 km
Cloud details: Overcast 600 ft
2020/01/25 23:12 KBOS 252312Z 09016KT 2 1/2SM RA BR OVC006 07/05 A2995 RMK AO2 P0002 T00720050
KLWM - Lawrence, Massachusetts, USA
Distance from station: NE 29mi, 47km
Updated: Sat, 25-Jan-2020 5:54pm EST
Light rain, Overcast
Light rain, Overcast
 Wind from ENE
Wind: ENE 17 mph , 28 km/h, Gust: 22 mph , 35 km/h
Temperature: 41°F , 5°C
Wind Chill: 33°F , 1°C
Dew Point: 37°F , 3°C
Humidity: 87%
Barometer: 29.98 inHg , 1015.2 hPa
Summary: Light rain
Clouds: Overcast
Visibility: 8 miles , 13 km
Cloud details: Overcast 600 ft
2020/01/25 22:54 KLWM 252254Z 06015G19KT 8SM -RA OVC006 05/03 A2998 RMK AO2 RAB20 PRESFR SLP153 P0000 T00500033 $
 
KBVY - Beverly, Massachusetts, USA
Distance from station: ENE 33mi, 54km
Updated: Sat, 25-Jan-2020 5:53pm EST
Rain, Mist, Overcast
Rain, Mist, Overcast
 Wind from E
Wind: E 16 mph , 26 km/h, Gust: 23 mph , 37 km/h
Temperature: 45°F , 7°C
Wind Chill: 38°F , 3°C
Dew Point: 41°F , 5°C
Humidity: 87%
Barometer: 29.97 inHg , 1014.9 hPa
Summary: Rain, Mist
Clouds: Overcast
Visibility: 5 miles , 8 km
Cloud details: Overcast 800 ft
2020/01/25 22:53 KBVY 252253Z 09014G20KT 5SM RA BR OVC008 07/05 A2997 RMK AO2 RAB18 SLP146 P0003 T00670050 $
KSFZ - Pawtucket, Rhode Island, USA
Distance from station: S 34mi, 54km
Updated: Sat, 25-Jan-2020 5:56pm EST
Rain, Mist, Overcast
Rain, Mist, Overcast
 Wind from E
Wind: E 10 mph , 17 km/h, Gust: 20 mph , 31 km/h
Temperature: 43°F , 6°C
Wind Chill: 37°F , 3°C
Dew Point: 43°F , 6°C
Humidity: 100%
Barometer: 29.86 inHg , 1011.2 hPa
Summary: Rain, Mist
Clouds: Overcast
Visibility: 2 1/2 miles , 4 km
Cloud details: Overcast 300 ft
2020/01/25 22:56 KSFZ 252256Z AUTO 08009G17KT 2 1/2SM RA BR OVC003 06/06 A2986 RMK AO2 PRESFR SLP060 P0018 T00610061
 
KAFN - Jaffrey, New Hampshire, USA
Distance from station: NW 36mi, 59km
Updated: Sat, 25-Jan-2020 6:12pm EST
Light rain, Mist, Overcast
Light rain, Mist, Overcast
 Wind from varies
Wind: varies 5 mph , 7 km/h
Temperature: 37°F , 3°C
Wind Chill: 33°F , 1°C
Dew Point: 36°F , 2°C
Humidity: 93%
Barometer: 29.89 inHg , 1012.2 hPa
Summary: Light rain, Mist
Clouds: Overcast
Visibility: 3 miles , 5 km
Cloud details: Overcast 700 ft
2020/01/25 23:12 KAFN 252312Z AUTO VRB04KT 3SM -RA BR OVC007 03/02 A2989 RMK AO2 UPE2254RAB2254 CIG 004V010 P0002 T00330022
KMHT - Manchester, New Hampshire, USA
Distance from station: N 37mi, 59km
Updated: Sat, 25-Jan-2020 5:53pm EST
Light rain, Mist, Overcast
Light rain, Mist, Overcast
 Wind from E
Wind: E 13 mph , 20 km/h, Gust: 23 mph , 37 km/h
Temperature: 39°F , 4°C
Wind Chill: 31°F , -1°C
Dew Point: 37°F , 3°C
Humidity: 93%
Barometer: 29.96 inHg , 1014.6 hPa
Summary: Light rain, Mist
Clouds: Overcast
Visibility: 3 miles , 5 km
Cloud details: Overcast 500 ft
2020/01/25 22:53 KMHT 252253Z 08011G20KT 3SM -RA BR OVC005 04/03 A2996 RMK AO2 RAB50 SLP163 P0000 T00440033
 
KORE - Orange, Massachusetts, USA
Distance from station: WNW 40mi, 65km
Updated: Sat, 25-Jan-2020 6:01pm EST
Rain, Mist, Overcast
Rain, Mist, Overcast
 Wind from E
Wind: E 9 mph , 15 km/h, Gust: 22 mph , 35 km/h
Temperature: 41°F , 5°C
Wind Chill: 35°F , 2°C
Dew Point: 37°F , 3°C
Humidity: 87%
Barometer: 29.87 inHg , 1011.5 hPa
Summary: Rain, Mist
Clouds: Overcast
Visibility: 5 miles , 8 km
Cloud details: Overcast 1100 ft
2020/01/25 23:01 KORE 252301Z AUTO 08008G19KT 5SM RA BR OVC011 05/03 A2987 RMK AO2 P0002 T00500028
KTAN - Taunton, Massachusetts, USA
Distance from station: SE 45mi, 72km
Updated: Sat, 25-Jan-2020 5:52pm EST
Light rain, Mist, Overcast
Light rain, Mist, Overcast
 Wind from E
Wind: E 12 mph , 19 km/h, Gust: 17 mph , 28 km/h
Temperature: 45°F , 7°C
Wind Chill: 39°F , 4°C
Dew Point: 43°F , 6°C
Humidity: 93%
Barometer: 29.91 inHg , 1012.9 hPa
Summary: Light rain, Mist
Clouds: Overcast
Visibility: 2 1/2 miles , 4 km
Cloud details: Overcast 500 ft
2020/01/25 22:52 KTAN 252252Z AUTO 10010G15KT 2 1/2SM -RA BR OVC005 07/06 A2991 RMK AO2 SLP127 P0006 T00720061
 
KPVD - Providence/Green, Rhode Island, USA
Distance from station: S 48mi, 77km
Updated: Sat, 25-Jan-2020 6:02pm EST
Light rain, Mist, Overcast
Light rain, Mist, Overcast
 Wind from E
Wind: E 16 mph , 26 km/h, Gust: 25 mph , 41 km/h
Temperature: 45°F , 7°C
Wind Chill: 38°F , 3°C
Dew Point: 45°F , 7°C
Humidity: 100%
Barometer: 29.85 inHg , 1010.8 hPa
Summary: Light rain, Mist
Clouds: Overcast
Visibility: 3 miles , 5 km
Cloud details: Overcast 400 ft
2020/01/25 23:02 KPVD 252302Z 09014G22KT 3SM -RA BR OVC004 07/07 A2985 RMK AO2 P0001 T00720072
KGHG - Marshfield, Massachusetts, USA
Distance from station: ESE 49mi, 79km
Updated: Sat, 25-Jan-2020 6:15pm EST
Light rain, Overcast
Light rain, Overcast
 Wind from E
Wind: E 12 mph , 19 km/h, Gust: 24 mph , 39 km/h
Temperature: 45°F , 7°C
Wind Chill: 39°F , 4°C
Dew Point: 45°F , 7°C
Humidity: 100%
Barometer: 29.93 inHg , 1013.5 hPa
Summary: Light rain
Clouds: Overcast
Visibility: 2 miles , 3 km
Cloud details: Overcast 300 ft
2020/01/25 23:15 KGHG 252315Z AUTO 10010G21KT 2SM -RA OVC003 07/07 A2993 RMK AO2
 
KEEN - Keene/Dillant, New Hampshire, USA
Distance from station: NW 50mi, 81km
Updated: Sat, 25-Jan-2020 5:56pm EST
Light rain, Overcast
Light rain, Overcast
 Wind from calm
Wind: Calm
Temperature: 39°F , 4°C
Dew Point: 37°F , 3°C
Humidity: 93%
Barometer: 29.90 inHg , 1012.5 hPa
Summary: Light rain
Clouds: Overcast
Visibility: 8 miles , 13 km
Cloud details: Overcast 1100 ft
2020/01/25 22:56 KEEN 252256Z AUTO 00000KT 8SM -RA OVC011 04/03 A2990 RMK AO2 SLP135 P0000 T00440028 $